Time;durP1;ratioP1;P1;durP2;ratioP2;P2;SDS_P1;SDS_P2;PMS_P1;PMS_P2;Temp;Humidity;BMP_temperature;BMP_pressure;BME280_temperature;BME280_humidity;BME280_pressure;Samples;Min_cycle;Max_cycle;Signal;HPM_P1;HPM_P2
2021/05/02 00:04:18;;;;;;;9.32;8.48;;;;;;;12.16;40.84;99693.56;10303962;28;20054;-68
2021/05/02 00:09:19;;;;;;;8.88;7.95;;;;;;;12.29;41.49;99709.22;10301485;28;20050;-68
2021/05/02 00:14:20;;;;;;;9.45;8.57;;;;;;;12.24;41.60;99714.16;10306898;28;20047;-67
2021/05/02 00:19:22;;;;;;;8.63;7.82;;;;;;;12.14;41.55;99689.34;10306002;28;20060;-67
2021/05/02 00:24:23;;;;;;;8.90;8.02;;;;;;;12.10;41.32;99693.28;10305273;28;20110;-67
2021/05/02 00:29:24;;;;;;;8.57;7.68;;;;;;;12.27;41.09;99727.22;10322239;28;20053;-67
2021/05/02 00:34:27;;;;;;;8.85;8.05;;;;;;;12.08;40.74;99711.28;10344705;28;20061;-68
2021/05/02 00:39:29;;;;;;;9.05;7.30;;;;;;;12.13;40.87;99733.03;10309868;28;20061;-66
2021/05/02 00:44:45;;;;;;;8.75;7.97;;;;;;;12.06;40.64;99710.59;10316592;28;20042;-66
2021/05/02 00:49:57;;;;;;;8.10;7.40;;;;;;;11.81;41.66;99732.41;10300160;28;20060;-67
2021/05/02 00:55:10;;;;;;;7.95;7.35;;;;;;;11.96;41.23;99735.47;10298829;28;20113;-67
2021/05/02 01:00:13;;;;;;;8.00;7.30;;;;;;;12.06;41.26;99745.28;10308120;28;20124;-67
2021/05/02 01:05:14;;;;;;;8.15;7.38;;;;;;;12.02;41.37;99742.03;10314318;28;20050;-67
2021/05/02 01:10:18;;;;;;;7.30;6.68;;;;;;;12.05;40.38;99746.25;10326887;28;20105;-67
2021/05/02 01:15:24;;;;;;;7.00;6.30;;;;;;;11.70;41.27;99755.72;10319614;28;20594;-66
2021/05/02 01:20:27;;;;;;;7.70;7.05;;;;;;;11.73;41.05;99758.94;10312750;28;20128;-67
2021/05/02 01:25:28;;;;;;;8.13;6.95;;;;;;;11.80;41.20;99772.53;10303952;28;20104;-68
2021/05/02 01:30:30;;;;;;;7.20;6.20;;;;;;;11.88;40.66;99761.16;10308700;28;20058;-67
2021/05/02 01:35:31;;;;;;;7.13;6.40;;;;;;;11.89;40.42;99763.69;10309934;28;20049;-67
2021/05/02 01:40:32;;;;;;;7.38;6.78;;;;;;;11.89;40.58;99765.50;10315076;23;20054;-72
2021/05/02 01:45:33;;;;;;;7.70;6.95;;;;;;;11.81;40.64;99763.53;10347423;28;20050;-73
2021/05/02 01:51:04;;;;;;;12.20;6.95;;;;;;;11.87;41.10;99767.47;10352175;28;20060;-72
2021/05/02 01:56:06;;;;;;;8.73;7.10;;;;;;;11.55;41.05;99768.66;10354405;28;20120;-72
2021/05/02 02:01:13;;;;;;;7.45;6.75;;;;;;;11.66;42.41;99774.69;10327046;28;20173;-72
2021/05/02 02:06:16;;;;;;;7.15;6.55;;;;;;;11.56;41.78;99765.84;10333085;28;20082;-72
2021/05/02 02:11:17;;;;;;;8.35;6.63;;;;;;;11.61;41.65;99768.91;10348430;28;21538;-71
2021/05/02 02:16:18;;;;;;;7.15;6.55;;;;;;;11.31;42.42;99793.91;10340485;28;20080;-72
2021/05/02 02:21:24;;;;;;;7.05;6.32;;;;;;;11.41;42.29;99794.75;10352161;28;20606;-73
2021/05/02 02:26:48;;;;;;;7.13;6.40;;;;;;;11.37;42.22;99792.50;10348196;28;20551;-75
2021/05/02 02:31:50;;;;;;;6.57;5.97;;;;;;;11.41;42.26;99796.53;10345970;28;20100;-73
2021/05/02 02:36:51;;;;;;;7.40;6.80;;;;;;;11.47;42.07;99798.69;10344899;28;20045;-73
2021/05/02 02:41:53;;;;;;;8.82;7.25;;;;;;;10.97;43.00;99794.25;10346021;28;20077;-73
2021/05/02 02:46:57;;;;;;;7.78;7.07;;;;;;;11.09;43.70;99816.28;10340953;28;20135;-72
2021/05/02 02:52:01;;;;;;;7.93;7.22;;;;;;;11.27;42.96;99809.34;10343811;28;20368;-71
2021/05/02 02:57:05;;;;;;;7.35;6.70;;;;;;;11.33;43.65;99813.25;10342742;28;20601;-72
2021/05/02 03:02:07;;;;;;;7.95;7.25;;;;;;;11.10;43.46;99820.66;10346879;28;20129;-73
2021/05/02 03:07:11;;;;;;;8.25;7.55;;;;;;;11.14;43.46;99816.75;10332789;28;20068;-74
2021/05/02 03:12:16;;;;;;;;;;;;;;;11.30;44.43;99819.72;10339411;28;20078;-71
2021/05/02 03:17:22;;;;;;;8.18;7.38;;;;;;;11.14;46.37;99824.72;10347472;28;20007;-71
2021/05/02 03:22:42;;;;;;;7.32;6.68;;;;;;;10.96;44.39;99838.69;10376411;28;20544;-71
2021/05/02 03:27:46;;;;;;;7.28;6.57;;;;;;;11.01;45.45;99829.47;10345303;28;20041;-72
2021/05/02 03:32:51;;;;;;;7.00;6.40;;;;;;;10.82;44.68;99847.06;10353434;28;20068;-71
2021/05/02 03:38:22;;;;;;;7.88;6.40;;;;;;;10.64;45.44;99838.88;10346696;28;20045;-72
2021/05/02 03:43:23;;;;;;;6.97;6.28;;;;;;;10.47;46.12;99858.13;10348274;28;20058;-71
2021/05/02 03:48:25;;;;;;;7.32;6.63;;;;;;;10.37;46.88;99852.75;10390848;28;20137;-71
2021/05/02 03:53:26;;;;;;;7.78;6.35;;;;;;;10.12;47.22;99869.94;10362508;28;20115;-70
2021/05/02 03:58:27;;;;;;;7.70;6.90;;;;;;;10.41;46.67;99876.31;10353445;28;20465;-70
2021/05/02 04:03:28;;;;;;;6.35;5.75;;;;;;;10.29;46.66;99884.47;10334146;28;20050;-71
2021/05/02 04:08:29;;;;;;;7.20;6.50;;;;;;;10.24;48.70;99890.19;10335902;28;20058;-71
2021/05/02 04:13:30;;;;;;;8.23;7.05;;;;;;;10.59;48.12;99889.00;10349886;28;20038;-72
2021/05/02 04:18:31;;;;;;;8.32;7.10;;;;;;;10.51;47.45;99892.34;10351775;28;20073;-72
2021/05/02 04:23:34;;;;;;;6.90;6.20;;;;;;;10.58;46.59;99906.81;10341163;28;20046;-72
2021/05/02 04:28:36;;;;;;;7.55;6.55;;;;;;;10.23;46.90;99910.59;10371385;28;20082;-72
2021/05/02 04:33:37;;;;;;;7.70;6.93;;;;;;;10.31;47.24;99912.63;10355841;28;20689;-72
2021/05/02 04:38:38;;;;;;;7.50;6.80;;;;;;;10.64;46.76;99916.06;10342069;28;20060;-72
2021/05/02 04:43:39;;;;;;;9.02;6.60;;;;;;;10.46;48.12;99921.13;10343060;28;20057;-73
2021/05/02 04:48:40;;;;;;;8.65;6.32;;;;;;;10.37;47.46;99932.56;10346545;28;20480;-73
2021/05/02 04:53:42;;;;;;;7.05;6.45;;;;;;;10.50;48.16;99949.19;10344502;28;20042;-74
2021/05/02 04:58:43;;;;;;;8.05;7.32;;;;;;;10.25;48.24;99948.59;10357387;28;20470;-72
2021/05/02 05:03:45;;;;;;;8.55;7.75;;;;;;;10.20;49.61;99966.72;10351605;28;20468;-73
2021/05/02 05:08:46;;;;;;;9.88;8.75;;;;;;;9.96;48.88;99956.31;10345754;28;20150;-73
2021/05/02 05:13:48;;;;;;;9.75;8.75;;;;;;;9.77;49.84;99972.91;10348530;28;20053;-72
2021/05/02 05:18:49;;;;;;;10.32;9.10;;;;;;;10.08;49.61;99967.75;10350913;28;20066;-72
2021/05/02 05:23:50;;;;;;;10.93;9.77;;;;;;;10.04;50.97;99975.16;10345543;28;20104;-73
2021/05/02 05:28:51;;;;;;;10.48;9.32;;;;;;;10.09;49.83;99980.91;10352969;28;20046;-72
2021/05/02 05:33:51;;;;;;;10.80;9.80;;;;;;;9.90;51.16;99984.25;10350123;28;20046;-74
2021/05/02 05:38:52;;;;;;;11.43;10.32;;;;;;;10.19;51.37;100004.09;10368767;28;20053;-72
2021/05/02 05:43:53;;;;;;;12.10;10.88;;;;;;;9.76;51.52;100000.50;10353801;28;20129;-72
2021/05/02 05:48:54;;;;;;;14.98;13.50;;;;;;;9.63;52.02;100002.44;10358744;28;20054;-74
2021/05/02 05:53:55;;;;;;;14.10;12.80;;;;;;;9.75;53.27;100019.22;10348133;28;20060;-71
2021/05/02 05:58:56;;;;;;;15.30;13.90;;;;;;;10.20;52.37;100025.25;10356572;28;20076;-74
2021/05/02 06:03:58;;;;;;;13.55;12.30;;;;;;;10.36;50.70;100022.19;10359754;28;20076;-72
2021/05/02 06:09:06;;;;;;;14.52;12.70;;;;;;;10.09;50.93;100026.13;10324591;28;20109;-73
2021/05/02 06:14:08;;;;;;;14.80;13.43;;;;;;;9.95;51.89;100033.56;10349805;28;20049;-73
2021/05/02 06:19:09;;;;;;;17.17;13.43;;;;;;;10.32;50.83;100043.84;10340507;28;20137;-73
2021/05/02 06:24:10;;;;;;;13.77;12.48;;;;;;;10.36;50.58;100063.94;10345049;28;20037;-72
2021/05/02 06:29:11;;;;;;;15.27;13.88;;;;;;;10.09;51.65;100059.88;10349706;28;20057;-72
2021/05/02 06:34:12;;;;;;;16.70;15.10;;;;;;;10.35;51.37;100056.91;10321964;28;20065;-70
2021/05/02 06:39:13;;;;;;;18.15;16.45;;;;;;;10.09;52.33;100062.53;10317526;28;20069;-72
2021/05/02 06:44:14;;;;;;;17.50;15.82;;;;;;;10.52;52.01;100056.34;10317060;28;20057;-72
2021/05/02 06:49:15;;;;;;;19.85;18.00;;;;;;;10.32;51.07;100073.09;10317226;28;20437;-73
2021/05/02 06:54:16;;;;;;;18.88;17.10;;;;;;;10.61;50.71;100078.69;10304441;28;20108;-72
2021/05/02 06:59:17;;;;;;;13.45;12.13;;;;;;;10.61;48.46;100090.19;10323658;28;20034;-73
2021/05/02 07:04:18;;;;;;;11.65;10.45;;;;;;;10.39;47.08;100079.66;10335330;28;20057;-71
2021/05/02 07:09:19;;;;;;;10.38;9.43;;;;;;;10.78;46.77;100082.63;10315355;28;20073;-73
2021/05/02 07:14:20;;;;;;;10.27;9.20;;;;;;;11.48;45.66;100102.38;10314906;28;20453;-73
2021/05/02 07:19:23;;;;;;;11.20;10.02;;;;;;;11.68;42.80;100100.63;10324106;28;20461;-72
2021/05/02 07:24:24;;;;;;;9.15;8.13;;;;;;;11.65;43.04;100095.56;10316586;28;20622;-70
2021/05/02 07:29:25;;;;;;;8.40;7.35;;;;;;;12.03;42.48;100107.38;10317353;28;20128;-71
2021/05/02 07:34:26;;;;;;;9.35;8.32;;;;;;;12.34;40.85;100111.78;10341096;28;20117;-72
2021/05/02 07:39:27;;;;;;;9.27;8.20;;;;;;;12.47;39.91;100111.53;10336269;28;20050;-72
2021/05/02 07:44:28;;;;;;;8.10;6.85;;;;;;;12.79;39.92;100118.41;10318561;23;21762;-56
2021/05/02 07:49:29;;;;;;;8.45;7.63;;;;;;;12.12;39.48;100118.22;10272500;28;20046;-56
2021/05/02 07:54:31;;;;;;;6.97;6.28;;;;;;;12.39;40.27;100125.56;10232654;28;20043;-56
2021/05/02 07:59:32;;;;;;;7.90;7.00;;;;;;;12.95;40.29;100113.34;10231952;28;20495;-57
2021/05/02 08:04:37;;;;;;;8.68;7.88;;;;;;;13.55;39.55;100114.94;10214459;28;20142;-58
2021/05/02 08:09:38;;;;;;;10.18;9.05;;;;;;;13.22;37.54;100109.09;10235605;28;20117;-56
2021/05/02 08:14:39;;;;;;;9.45;8.50;;;;;;;12.99;39.23;100127.28;10241613;28;20496;-57
2021/05/02 08:19:40;;;;;;;8.38;7.57;;;;;;;12.93;38.34;100134.03;10242762;28;20061;-56
2021/05/02 08:24:41;;;;;;;9.93;8.93;;;;;;;12.00;40.02;100137.00;10246329;28;20138;-55
2021/05/02 08:29:42;;;;;;;9.63;8.50;;;;;;;11.90;40.82;100146.75;10238964;28;20419;-57
2021/05/02 08:34:43;;;;;;;9.60;8.52;;;;;;;11.87;40.37;100136.34;10238366;28;20061;-58
2021/05/02 08:39:44;;;;;;;8.98;8.07;;;;;;;11.82;40.19;100146.59;10240834;28;20050;-58
2021/05/02 08:44:46;;;;;;;8.70;7.57;;;;;;;12.75;39.83;100143.75;10240220;28;20074;-57
2021/05/02 08:49:47;;;;;;;10.95;8.82;;;;;;;13.57;37.61;100153.06;10232581;28;20065;-57
2021/05/02 08:54:48;;;;;;;9.65;8.00;;;;;;;12.70;38.30;100155.69;10230150;28;20480;-58
2021/05/02 08:59:50;;;;;;;9.43;8.35;;;;;;;12.91;38.24;100157.38;10244288;28;20383;-57
2021/05/02 09:05:03;;;;;;;7.10;6.45;;;;;;;14.13;37.91;100159.31;10234570;28;20162;-58
2021/05/02 09:10:04;;;;;;;7.60;6.90;;;;;;;13.21;36.12;100152.81;10231922;28;20050;-56
2021/05/02 09:15:22;;;;;;;8.00;6.53;;;;;;;12.83;36.16;100157.22;10230963;28;20483;-57
2021/05/02 09:20:48;;;;;;;7.10;6.43;;;;;;;13.12;36.64;100159.03;10237084;28;20475;-56
2021/05/02 09:25:52;;;;;;;6.30;5.70;;;;;;;13.69;34.84;100159.06;10222235;28;20511;-56
2021/05/02 09:31:08;;;;;;;7.73;7.03;;;;;;;13.58;36.15;100171.63;10231101;28;20082;-58
2021/05/02 09:36:11;;;;;;;8.07;7.05;;;;;;;12.77;37.22;100147.94;10231026;28;20082;-57
2021/05/02 09:41:14;;;;;;;6.88;6.28;;;;;;;13.08;37.10;100188.72;10231944;28;20070;-55
2021/05/02 09:51:53;;;;;;;6.00;5.10;;;;;;;13.58;35.75;100186.84;10227448;28;20058;-59
2021/05/02 09:57:02;;;;;;;5.18;4.72;;;;;;;13.85;34.36;100193.25;10234648;28;20058;-55
2021/05/02 10:02:11;;;;;;;5.13;4.63;;;;;;;13.46;35.63;100199.53;10229042;28;20074;-60
2021/05/02 10:07:18;;;;;;;6.07;5.13;;;;;;;13.04;36.41;100199.81;10227003;28;20516;-56
2021/05/02 10:12:20;;;;;;;4.65;4.22;;;;;;;13.57;36.05;100209.22;10227159;28;20058;-55
2021/05/02 10:17:21;;;;;;;5.00;4.60;;;;;;;13.18;35.77;100217.25;10225908;28;20065;-57
2021/05/02 10:22:22;;;;;;;7.65;4.28;;;;;;;13.97;34.81;100211.63;10227234;28;20723;-58
2021/05/02 10:27:23;;;;;;;4.80;4.40;;;;;;;14.14;35.08;100218.06;10227605;28;20058;-58
2021/05/02 10:32:33;;;;;;;4.97;4.57;;;;;;;13.83;35.89;100211.28;10225111;28;20057;-56
2021/05/02 10:37:36;;;;;;;4.75;3.90;;;;;;;12.69;37.37;100241.28;10227711;28;20709;-57
2021/05/02 10:42:42;;;;;;;4.93;3.45;;;;;;;13.13;38.06;100235.56;10220121;28;20698;-59
2021/05/02 10:47:43;;;;;;;3.70;3.40;;;;;;;13.74;36.24;100231.72;10227604;28;20495;-58
2021/05/02 10:53:00;;;;;;;3.90;3.58;;;;;;;13.49;36.15;100231.31;10224597;28;20093;-56
2021/05/02 10:58:04;;;;;;;3.60;3.30;;;;;;;14.02;35.38;100243.34;10222417;28;20189;-59
2021/05/02 11:03:39;;;;;;;4.90;3.25;;;;;;;13.82;34.73;100249.72;10222769;28;20466;-58
2021/05/02 11:09:01;;;;;;;4.80;3.20;;;;;;;14.09;34.47;100249.75;10224572;28;20468;-59
2021/05/02 11:14:14;;;;;;;3.45;3.00;;;;;;;15.35;33.30;100241.97;10220824;28;20169;-59
2021/05/02 11:19:24;;;;;;;3.20;2.90;;;;;;;14.57;32.89;100249.69;10224090;28;20075;-56
2021/05/02 11:24:50;;;;;;;3.38;2.95;;;;;;;14.72;32.92;100253.59;10221692;28;20871;-57
2021/05/02 11:30:01;;;;;;;3.20;2.90;;;;;;;15.16;32.93;100261.75;10221030;28;20168;-57
2021/05/02 11:35:09;;;;;;;2.92;2.38;;;;;;;15.14;32.31;100270.94;10225636;28;20114;-55
2021/05/02 11:40:32;;;;;;;3.00;2.78;;;;;;;13.94;35.37;100291.38;10222083;28;20125;-56
2021/05/02 11:45:51;;;;;;;4.72;2.95;;;;;;;13.12;36.47;100309.56;10218531;28;20086;-57
2021/05/02 11:51:00;;;;;;;3.20;2.90;;;;;;;12.79;37.54;100303.56;10221919;28;20058;-57
2021/05/02 11:56:09;;;;;;;4.00;3.60;;;;;;;13.42;37.35;100305.94;10223432;28;20058;-55
2021/05/02 12:01:30;;;;;;;4.90;4.50;;;;;;;12.72;38.06;100308.59;10220580;28;21398;-57
2021/05/02 12:06:34;;;;;;;4.75;4.25;;;;;;;12.63;37.58;100306.75;10213209;28;20050;-57
2021/05/02 12:11:34;;;;;;;4.53;4.13;;;;;;;12.64;37.23;100305.78;10223101;28;20140;-57
2021/05/02 12:16:36;;;;;;;4.88;4.38;;;;;;;14.09;36.00;100308.66;10222104;28;20065;-56
2021/05/02 12:21:40;;;;;;;4.60;4.20;;;;;;;15.25;32.56;100300.19;10219037;28;20055;-63
2021/05/02 12:26:47;;;;;;;4.28;3.97;;;;;;;14.92;33.22;100293.66;10221060;28;20186;-57
2021/05/02 12:32:06;;;;;;;3.88;3.45;;;;;;;14.57;33.50;100289.88;10222609;28;20075;-56
2021/05/02 12:37:18;;;;;;;3.97;3.67;;;;;;;14.43;34.18;100299.25;10218750;28;20141;-56
2021/05/02 12:42:33;;;;;;;4.30;4.00;;;;;;;14.42;34.29;100306.44;10220758;28;20215;-56
2021/05/02 12:47:44;;;;;;;3.63;3.33;;;;;;;13.89;34.12;100282.94;10222264;28;21019;-55
2021/05/02 12:52:47;;;;;;;4.00;3.30;;;;;;;13.30;35.70;100296.34;10221724;28;20157;-55
2021/05/02 12:57:59;;;;;;;5.25;3.58;;;;;;;13.79;34.90;100313.22;10230053;28;20038;-56
2021/05/02 13:03:26;;;;;;;2.97;2.78;;;;;;;13.28;34.00;100311.66;10232449;28;20055;-56
2021/05/02 13:08:27;;;;;;;2.65;2.45;;;;;;;13.55;34.67;100313.66;10228772;28;20130;-56
2021/05/02 13:13:28;;;;;;;4.18;2.70;;;;;;;14.34;33.40;100317.03;10226207;28;20067;-57
2021/05/02 13:18:36;;;;;;;3.88;2.72;;;;;;;15.12;32.34;100311.31;10216780;28;20051;-58
2021/05/02 13:23:41;;;;;;;3.17;2.35;;;;;;;15.65;30.92;100298.03;10216104;28;20054;-55
2021/05/02 13:29:04;;;;;;;3.58;2.70;;;;;;;14.72;31.79;100293.78;10215350;28;20153;-55
2021/05/02 13:34:05;;;;;;;5.30;3.60;;;;;;;13.80;33.57;100292.66;10214670;28;20721;-57
2021/05/02 13:39:07;;;;;;;2.85;2.60;;;;;;;13.14;35.44;100296.03;10219059;28;20507;-57
2021/05/02 13:44:11;;;;;;;3.88;3.25;;;;;;;13.72;34.46;100306.78;10238194;23;20054;-61
2021/05/02 13:49:12;;;;;;;3.10;2.80;;;;;;;14.22;33.38;100296.81;10254041;28;20051;-62
2021/05/02 13:54:13;;;;;;;6.07;2.90;;;;;;;14.76;31.96;100294.34;10195085;28;20063;-62
2021/05/02 13:59:27;;;;;;;3.35;2.78;;;;;;;15.31;30.69;100294.25;10212821;28;20051;-62
2021/05/02 14:04:28;;;;;;;3.08;2.58;;;;;;;15.84;30.37;100294.38;10193586;28;20070;-62
2021/05/02 14:09:29;;;;;;;2.92;2.13;;;;;;;15.54;30.25;100291.09;10200741;28;20047;-67
2021/05/02 14:14:30;;;;;;;2.78;2.10;;;;;;;15.27;31.07;100286.66;10199825;28;20061;-65
2021/05/02 14:19:31;;;;;;;4.07;2.22;;;;;;;15.58;30.25;100288.94;10198197;28;20059;-66
2021/05/02 14:24:32;;;;;;;2.53;2.20;;;;;;;15.52;30.81;100293.91;10204144;28;20062;-64
2021/05/02 14:29:33;;;;;;;2.95;2.00;;;;;;;14.99;30.46;100284.84;10197437;28;20417;-64
2021/05/02 14:34:41;;;;;;;2.00;1.90;;;;;;;14.69;30.20;100283.34;10206466;28;20354;-66
2021/05/02 14:39:42;;;;;;;2.10;1.90;;;;;;;14.29;30.93;100292.53;10221310;28;20559;-64
2021/05/02 14:44:43;;;;;;;2.75;1.90;;;;;;;14.09;32.12;100291.75;10193889;28;20062;-66
2021/05/02 14:49:44;;;;;;;2.67;1.73;;;;;;;13.74;32.94;100299.44;10202455;28;20153;-65
2021/05/02 14:54:48;;;;;;;2.33;1.70;;;;;;;13.74;33.02;100304.78;10209712;28;20077;-61
2021/05/02 14:59:49;;;;;;;2.35;1.70;;;;;;;13.43;33.79;100312.13;10208582;28;20065;-63
2021/05/02 15:04:50;;;;;;;2.30;1.90;;;;;;;13.24;34.26;100318.25;10222563;28;20492;-63
2021/05/02 15:09:51;;;;;;;4.10;2.28;;;;;;;12.71;34.96;100317.59;10229532;28;20062;-66
2021/05/02 15:14:52;;;;;;;3.17;2.47;;;;;;;12.78;35.20;100323.25;10260291;28;20122;-64
2021/05/02 15:19:53;;;;;;;5.28;3.25;;;;;;;13.15;35.16;100324.44;10239047;28;20039;-64
2021/05/02 15:24:54;;;;;;;3.88;2.95;;;;;;;13.02;34.38;100330.06;10233847;28;20055;-65
2021/05/02 15:29:55;;;;;;;3.80;2.15;;;;;;;12.57;35.54;100325.16;10239790;28;20051;-65
2021/05/02 15:34:56;;;;;;;3.50;2.13;;;;;;;12.51;36.07;100335.38;10239053;28;20313;-65
2021/05/02 15:39:57;;;;;;;2.25;2.03;;;;;;;12.53;35.38;100330.72;10237620;28;20141;-66
2021/05/02 15:44:58;;;;;;;3.28;2.25;;;;;;;12.53;34.46;100325.41;10236793;28;20053;-63
2021/05/02 15:49:59;;;;;;;2.55;1.85;;;;;;;13.01;34.82;100323.84;10210085;28;20063;-66
2021/05/02 15:55:00;;;;;;;2.60;1.90;;;;;;;13.03;34.11;100324.56;10224469;28;20540;-65
2021/05/02 16:00:03;;;;;;;4.00;2.78;;;;;;;13.29;33.73;100324.03;10206644;28;20055;-63
2021/05/02 16:05:05;;;;;;;2.35;1.10;;;;;;;13.42;32.31;100310.41;10198176;28;20091;-64
2021/05/02 16:10:06;;;;;;;3.33;1.55;;;;;;;13.25;31.14;100325.31;10203179;28;20134;-62
2021/05/02 16:15:08;;;;;;;2.03;1.17;;;;;;;12.83;30.46;100323.66;10199615;28;20105;-64
2021/05/02 16:20:10;;;;;;;2.60;1.20;;;;;;;12.65;32.24;100317.28;10209588;28;20052;-66
2021/05/02 16:25:11;;;;;;;3.17;1.67;;;;;;;12.66;32.14;100314.50;10210052;28;22174;-61
2021/05/02 16:30:13;;;;;;;3.00;1.58;;;;;;;12.97;32.50;100329.59;10209351;28;20562;-62
2021/05/02 16:35:14;;;;;;;2.63;1.27;;;;;;;13.33;32.24;100328.13;10215056;28;21239;-67
2021/05/02 16:40:15;;;;;;;3.17;1.63;;;;;;;13.51;31.89;100319.44;10213469;28;20079;-67
2021/05/02 16:45:17;;;;;;;2.40;1.80;;;;;;;13.32;32.33;100314.91;10225812;28;20065;-64
2021/05/02 16:50:18;;;;;;;1.83;1.60;;;;;;;13.16;32.58;100308.25;10224088;28;20073;-62
2021/05/02 16:55:19;;;;;;;2.97;2.30;;;;;;;13.14;32.71;100328.13;10223912;28;20035;-65
2021/05/02 17:00:21;;;;;;;1.92;1.52;;;;;;;12.69;32.55;100321.41;10239247;28;20047;-67
2021/05/02 17:05:22;;;;;;;2.67;1.80;;;;;;;12.64;33.16;100319.13;10236434;28;20063;-65
2021/05/02 17:10:23;;;;;;;1.50;1.40;;;;;;;12.76;33.27;100313.66;10230435;28;20076;-68
2021/05/02 17:15:26;;;;;;;3.50;1.95;;;;;;;12.93;33.15;100321.03;10243157;28;20055;-64
2021/05/02 17:20:27;;;;;;;3.00;1.63;;;;;;;12.81;32.67;100319.47;10236462;28;20062;-66
2021/05/02 17:25:32;;;;;;;1.90;1.38;;;;;;;12.47;32.92;100325.09;10241762;28;20168;-68
2021/05/02 17:30:34;;;;;;;;;;;;;;;12.25;32.55;100328.78;10227861;28;20648;-66
2021/05/02 17:35:35;;;;;;;3.08;1.52;;;;;;;12.06;32.24;100332.22;10244000;28;19954;-65
2021/05/02 17:40:36;;;;;;;1.52;1.00;;;;;;;11.96;31.72;100338.28;10241991;28;20058;-67
2021/05/02 17:45:39;;;;;;;2.33;1.40;;;;;;;11.83;32.53;100345.66;10247439;28;20050;-58
2021/05/02 17:50:41;;;;;;;2.83;1.25;;;;;;;11.94;32.75;100350.94;10236200;28;20113;-57
2021/05/02 17:55:43;;;;;;;2.42;1.52;;;;;;;11.89;33.01;100349.59;10235077;28;20052;-58
2021/05/02 18:00:44;;;;;;;2.20;1.67;;;;;;;11.85;33.69;100357.84;10229377;28;20113;-62
2021/05/02 18:05:45;;;;;;;2.25;1.27;;;;;;;11.64;34.01;100359.66;10211203;28;20496;-62
2021/05/02 18:10:47;;;;;;;3.50;1.90;;;;;;;11.48;34.34;100360.09;10209732;28;20098;-62
2021/05/02 18:15:48;;;;;;;3.90;2.25;;;;;;;11.36;35.49;100372.59;10209484;28;20118;-60
2021/05/02 18:20:50;;;;;;;2.33;1.65;;;;;;;11.25;35.86;100370.81;10208471;28;20053;-66
2021/05/02 18:25:51;;;;;;;1.92;1.42;;;;;;;11.24;35.69;100379.75;10228347;28;20051;-66
2021/05/02 18:30:52;;;;;;;2.75;2.17;;;;;;;11.08;36.17;100385.50;10234965;28;20059;-63
2021/05/02 18:35:56;;;;;;;3.90;2.15;;;;;;;11.02;36.48;100401.13;10211016;28;20039;-66
2021/05/02 18:40:57;;;;;;;3.17;1.43;;;;;;;11.09;37.56;100410.31;10208693;28;20048;-62
2021/05/02 18:46:04;;;;;;;2.38;1.70;;;;;;;11.26;37.40;100409.81;10212801;28;20047;-61
2021/05/02 18:51:05;;;;;;;5.00;1.88;;;;;;;11.26;38.00;100412.50;10206412;28;20425;-64
2021/05/02 18:56:07;;;;;;;2.55;1.63;;;;;;;11.20;37.56;100434.31;10210572;28;20137;-61
2021/05/02 19:01:09;;;;;;;4.00;2.03;;;;;;;11.14;38.92;100435.63;10204854;28;20046;-64
2021/05/02 19:06:10;;;;;;;4.18;1.73;;;;;;;11.22;37.76;100444.84;10204718;28;20075;-64
2021/05/02 19:11:11;;;;;;;4.18;2.15;;;;;;;11.02;38.79;100449.94;10210687;28;20058;-62
2021/05/02 19:16:12;;;;;;;2.88;2.00;;;;;;;11.03;39.49;100458.75;10208967;28;20050;-63
2021/05/02 19:21:13;;;;;;;2.55;1.92;;;;;;;10.73;38.97;100460.19;10210394;28;20713;-65
2021/05/02 19:26:14;;;;;;;3.13;1.58;;;;;;;10.78;39.10;100463.38;10207150;28;20051;-66
2021/05/02 19:31:15;;;;;;;4.35;2.30;;;;;;;10.53;40.44;100469.75;10212581;28;20512;-60
2021/05/02 19:36:16;;;;;;;3.97;2.10;;;;;;;10.77;39.73;100474.97;10212009;28;20118;-65
2021/05/02 19:41:17;;;;;;;2.35;1.83;;;;;;;10.71;40.43;100483.44;10209660;28;20059;-62
2021/05/02 19:46:19;;;;;;;2.50;2.30;;;;;;;10.79;39.71;100481.03;10206511;28;20070;-65
2021/05/02 19:51:21;;;;;;;3.40;2.20;;;;;;;10.72;40.50;100488.66;10238465;23;20050;-61
2021/05/02 19:56:24;;;;;;;2.60;2.17;;;;;;;10.74;41.24;100499.19;10237434;28;20137;-62
2021/05/02 20:01:25;;;;;;;3.10;1.77;;;;;;;10.73;40.61;100497.47;10236996;28;20151;-62
2021/05/02 20:06:26;;;;;;;1.77;1.55;;;;;;;10.58;41.42;100481.75;10237424;28;20050;-61
2021/05/02 20:11:27;;;;;;;2.78;1.88;;;;;;;10.64;41.42;100500.84;10238861;28;20130;-61
2021/05/02 20:16:28;;;;;;;2.75;1.98;;;;;;;10.58;41.15;100499.50;10236858;28;20059;-67
2021/05/02 20:21:29;;;;;;;3.80;2.40;;;;;;;10.64;42.47;100516.81;10238859;28;20136;-63
2021/05/02 20:26:31;;;;;;;2.60;2.10;;;;;;;10.49;41.96;100517.00;10235722;28;20053;-62
2021/05/02 20:31:32;;;;;;;3.80;2.25;;;;;;;10.52;42.33;100526.59;10239762;28;20067;-64
2021/05/02 20:36:35;;;;;;;4.45;2.95;;;;;;;10.46;42.40;100532.38;10233482;28;20046;-62
2021/05/02 20:41:36;;;;;;;4.47;2.58;;;;;;;10.38;42.73;100530.31;10236332;28;20129;-61
2021/05/02 20:46:38;;;;;;;4.13;2.40;;;;;;;10.41;42.94;100530.06;10242756;28;20069;-63
2021/05/02 20:51:39;;;;;;;3.28;2.55;;;;;;;10.35;43.14;100530.53;10217404;28;579436;-62
2021/05/02 20:56:40;;;;;;;4.10;2.25;;;;;;;10.15;43.82;100542.63;10237219;28;20091;-61
2021/05/02 21:01:43;;;;;;;3.22;2.22;;;;;;;10.16;43.63;100539.84;10239184;28;20500;-64
2021/05/02 21:06:44;;;;;;;4.72;2.40;;;;;;;10.24;43.17;100548.13;10248458;28;20054;-62
2021/05/02 21:11:45;;;;;;;3.65;3.13;;;;;;;10.24;44.03;100548.13;10243667;28;20065;-63
2021/05/02 21:16:46;;;;;;;3.10;2.20;;;;;;;10.25;43.93;100557.81;10248205;28;20059;-64
2021/05/02 21:21:47;;;;;;;3.55;2.92;;;;;;;10.22;43.68;100566.00;10259747;28;20579;-64
2021/05/02 21:26:48;;;;;;;2.67;2.47;;;;;;;10.15;45.60;100562.09;10255179;28;20397;-62
2021/05/02 21:31:49;;;;;;;5.38;2.30;;;;;;;10.15;44.21;100569.22;10254321;28;20124;-62
2021/05/02 21:36:51;;;;;;;4.95;2.45;;;;;;;10.11;44.11;100571.25;10256733;28;20768;-61
2021/05/02 21:41:52;;;;;;;5.50;2.83;;;;;;;9.99;45.86;100566.84;10265953;28;20102;-59
2021/05/02 21:46:53;;;;;;;2.63;2.08;;;;;;;10.04;44.89;100576.19;10275098;28;20121;-61
2021/05/02 21:51:55;;;;;;;4.38;2.50;;;;;;;10.02;45.04;100585.25;10259157;28;20235;-61
2021/05/02 21:56:56;;;;;;;4.03;2.30;;;;;;;9.91;44.50;100586.88;10257508;28;20415;-62
2021/05/02 22:01:57;;;;;;;4.22;2.58;;;;;;;9.91;47.05;100592.19;10254559;28;20058;-61
2021/05/02 22:06:58;;;;;;;3.40;2.67;;;;;;;9.89;47.06;100582.63;10253614;28;20050;-61
2021/05/02 22:12:00;;;;;;;2.67;2.47;;;;;;;9.83;46.02;100597.22;10257377;28;20050;-62
2021/05/02 22:17:01;;;;;;;4.03;3.10;;;;;;;9.81;46.42;100596.47;10250993;28;20622;-62
2021/05/02 22:22:02;;;;;;;4.53;3.03;;;;;;;9.78;45.40;100602.00;10252602;28;20064;-61
2021/05/02 22:27:03;;;;;;;3.30;2.60;;;;;;;9.69;46.49;100600.00;10259143;28;20911;-63
2021/05/02 22:32:05;;;;;;;5.22;2.88;;;;;;;9.73;46.07;100604.16;10256195;28;20104;-62
2021/05/02 22:37:06;;;;;;;4.07;2.50;;;;;;;9.62;46.28;100596.06;10251136;28;20055;-61
2021/05/02 22:42:08;;;;;;;4.20;3.00;;;;;;;9.58;45.88;100594.59;10247983;28;20113;-61
2021/05/02 22:47:09;;;;;;;4.43;2.53;;;;;;;9.53;46.74;100603.75;10256195;28;20259;-62
2021/05/02 22:52:11;;;;;;;4.30;2.92;;;;;;;9.53;46.61;100606.41;10245025;28;21032;-60
2021/05/02 22:57:12;;;;;;;3.00;2.70;;;;;;;9.39;46.52;100601.22;10249568;28;20055;-62
2021/05/02 23:02:13;;;;;;;3.90;2.65;;;;;;;9.37;46.78;100614.59;10254219;28;20170;-62
2021/05/02 23:07:15;;;;;;;3.22;2.53;;;;;;;9.32;47.04;100621.19;10245592;28;20148;-61
2021/05/02 23:12:17;;;;;;;3.22;2.67;;;;;;;9.30;48.96;100609.84;10249759;28;20062;-62
2021/05/02 23:17:19;;;;;;;3.95;2.83;;;;;;;9.25;47.57;100619.91;10252019;28;20475;-67
2021/05/02 23:22:20;;;;;;;3.55;3.20;;;;;;;9.15;47.14;100601.13;10249016;28;20050;-62
2021/05/02 23:27:21;;;;;;;3.25;2.88;;;;;;;9.13;47.51;100614.50;10248180;28;20124;-63